Time;durP1;ratioP1;P1;durP2;ratioP2;P2;SDS_P1;SDS_P2;PMS_P1;PMS_P2;Temp;Humidity;BMP_temperature;BMP_pressure;BME280_temperature;BME280_humidity;BME280_pressure;Samples;Min_cycle;Max_cycle;Signal;HPM_P1;HPM_P2
2021/12/28 00:00:28;;;;;;;28.95;11.25;;;;;;;6.64;100.00;99400.66;5024509;28;20029;-72
2021/12/28 00:02:56;;;;;;;28.42;10.85;;;;;;;6.69;100.00;99397.19;5024174;28;20447;-72
2021/12/28 00:05:23;;;;;;;27.50;11.13;;;;;;;6.63;100.00;99396.25;5023196;28;20064;-72
2021/12/28 00:07:49;;;;;;;31.27;10.98;;;;;;;6.60;100.00;99394.03;5024008;28;20037;-72
2021/12/28 00:10:16;;;;;;;35.28;12.50;;;;;;;6.59;100.00;99396.97;5022852;28;20447;-72
2021/12/28 00:12:42;;;;;;;28.05;11.13;;;;;;;6.59;100.00;99394.25;5022596;28;20329;-73
2021/12/28 00:15:32;;;;;;;34.47;11.45;;;;;;;6.58;100.00;99396.16;5023330;28;20021;-72
2021/12/28 00:18:00;;;;;;;35.42;11.88;;;;;;;6.54;100.00;99395.00;5024303;28;20393;-72
2021/12/28 00:20:34;;;;;;;24.98;10.65;;;;;;;6.53;100.00;99396.03;5023277;28;20056;-72
2021/12/28 00:23:00;;;;;;;30.02;10.80;;;;;;;6.50;100.00;99402.00;5023821;28;20021;-73
2021/12/28 00:25:26;;;;;;;30.98;10.05;;;;;;;6.47;100.00;99406.00;5022783;28;20029;-72
2021/12/28 00:27:52;;;;;;;27.85;10.70;;;;;;;6.44;100.00;99401.06;5022586;28;20025;-72
2021/12/28 00:30:18;;;;;;;32.22;11.02;;;;;;;6.44;100.00;99392.88;5022697;28;20022;-72
2021/12/28 00:32:46;;;;;;;30.05;11.00;;;;;;;6.40;100.00;99383.50;5023729;28;20032;-72
2021/12/28 00:35:11;;;;;;;29.27;10.45;;;;;;;6.40;100.00;99388.13;5023255;28;20148;-72
2021/12/28 00:37:37;;;;;;;29.20;9.93;;;;;;;6.38;100.00;99387.53;5023299;28;20096;-72
2021/12/28 00:40:04;;;;;;;33.78;11.18;;;;;;;6.36;100.00;99379.59;5023074;28;20089;-66
2021/12/28 00:42:29;;;;;;;31.23;11.68;;;;;;;6.34;100.00;99375.47;5022285;28;20471;-72
2021/12/28 00:44:54;;;;;;;33.28;10.57;;;;;;;6.29;100.00;99373.44;5022899;28;20033;-72
2021/12/28 00:47:19;;;;;;;31.27;10.77;;;;;;;6.25;100.00;99369.53;5023014;28;20094;-72
2021/12/28 00:49:45;;;;;;;28.95;11.25;;;;;;;6.18;100.00;99369.66;5023364;28;20677;-72
2021/12/28 00:52:10;;;;;;;27.35;9.77;;;;;;;6.11;100.00;99374.41;5022952;28;20028;-72
2021/12/28 00:54:35;;;;;;;31.30;11.15;;;;;;;6.07;100.00;99367.75;5022934;28;20585;-72
2021/12/28 00:57:01;;;;;;;30.60;10.50;;;;;;;6.04;100.00;99361.97;5007539;28;20057;-72
2021/12/28 00:59:27;;;;;;;39.00;11.00;;;;;;;6.05;100.00;99363.63;5004167;28;20029;-73
2021/12/28 01:01:52;;;;;;;34.25;10.70;;;;;;;6.02;100.00;99356.75;5003086;28;20043;-72
2021/12/28 01:04:17;;;;;;;41.70;11.98;;;;;;;6.01;100.00;99359.72;5004054;28;20018;-72
2021/12/28 01:06:43;;;;;;;38.28;11.02;;;;;;;6.04;100.00;99362.81;5023068;28;20025;-72
2021/12/28 01:09:09;;;;;;;37.75;11.00;;;;;;;6.07;100.00;99366.94;5022426;28;20029;-72
2021/12/28 01:11:34;;;;;;;34.42;10.90;;;;;;;6.11;100.00;99355.31;5021653;28;20443;-72
2021/12/28 01:14:00;;;;;;;39.72;12.43;;;;;;;6.14;100.00;99346.69;5023261;28;20025;-72
2021/12/28 01:16:25;;;;;;;37.33;12.05;;;;;;;6.17;100.00;99348.06;5022345;28;20026;-72
2021/12/28 01:18:50;;;;;;;32.70;12.40;;;;;;;6.21;100.00;99352.81;5023148;28;20116;-72
2021/12/28 01:21:15;;;;;;;36.60;11.68;;;;;;;6.20;100.00;99353.91;5022870;28;20407;-72
2021/12/28 01:23:41;;;;;;;35.28;10.48;;;;;;;6.18;100.00;99345.13;5026734;28;20218;-72
2021/12/28 01:26:06;;;;;;;34.95;11.43;;;;;;;6.14;100.00;99352.13;5025553;28;20043;-72
2021/12/28 01:28:31;;;;;;;34.75;11.20;;;;;;;6.07;100.00;99345.94;5026721;28;20048;-68
2021/12/28 01:30:57;;;;;;;35.08;10.10;;;;;;;6.01;100.00;99341.47;5027315;28;20095;-72
2021/12/28 01:33:22;;;;;;;30.98;11.05;;;;;;;5.94;100.00;99346.22;5026295;28;20025;-72
2021/12/28 01:35:48;;;;;;;34.22;10.88;;;;;;;5.89;100.00;99346.06;5026810;28;20036;-72
2021/12/28 01:38:13;;;;;;;32.05;9.57;;;;;;;5.81;100.00;99340.97;5026481;28;20021;-72
2021/12/28 01:40:41;;;;;;;29.52;10.10;;;;;;;5.77;100.00;99348.75;5025724;28;20606;-72
2021/12/28 01:43:24;;;;;;;37.85;9.95;;;;;;;5.71;100.00;99347.81;5025540;28;20032;-72
2021/12/28 01:45:59;;;;;;;31.08;9.07;;;;;;;5.65;100.00;99346.03;5026458;28;20083;-72
2021/12/28 01:48:37;;;;;;;29.52;10.15;;;;;;;5.61;100.00;99349.47;5026304;28;20108;-72
2021/12/28 01:51:06;;;;;;;34.88;10.38;;;;;;;5.58;100.00;99350.78;5025707;28;20065;-65
2021/12/28 01:53:31;;;;;;;31.67;10.20;;;;;;;5.60;100.00;99351.38;5026492;28;20025;-68
2021/12/28 01:56:00;;;;;;;32.90;10.88;;;;;;;5.66;100.00;99344.97;5025163;28;20049;-73
2021/12/28 01:58:26;;;;;;;;;;;;;;;5.69;100.00;99357.31;5026324;28;20021;-72
2021/12/28 02:00:53;;;;;;;39.15;10.20;;;;;;;5.72;100.00;99344.03;5026122;28;20463;-72
2021/12/28 02:03:20;;;;;;;29.88;9.55;;;;;;;5.64;100.00;99340.84;5025798;28;20068;-72
2021/12/28 02:05:46;;;;;;;34.90;9.57;;;;;;;5.59;100.00;99344.25;5025696;28;20136;-72
2021/12/28 02:08:15;;;;;;;38.75;9.85;;;;;;;5.59;100.00;99338.81;5020807;28;20266;-72
2021/12/28 02:10:42;;;;;;;35.75;10.55;;;;;;;5.60;100.00;99339.66;5004689;28;20018;-71
2021/12/28 02:13:08;;;;;;;33.88;10.35;;;;;;;5.58;100.00;99341.78;5005702;28;20057;-72
2021/12/28 02:15:35;;;;;;;35.97;10.50;;;;;;;5.61;100.00;99341.28;5005835;28;20552;-72
2021/12/28 02:18:00;;;;;;;40.03;10.83;;;;;;;5.66;100.00;99334.06;5006443;28;20084;-72
2021/12/28 02:20:26;;;;;;;30.35;11.18;;;;;;;5.71;100.00;99331.47;5005351;28;20037;-72
2021/12/28 02:22:52;;;;;;;37.60;10.43;;;;;;;5.79;100.00;99332.19;5005940;28;20060;-72
2021/12/28 02:25:18;;;;;;;32.13;10.48;;;;;;;5.81;100.00;99321.88;5005516;28;20049;-72
2021/12/28 02:27:44;;;;;;;41.75;10.75;;;;;;;5.84;100.00;99333.16;5005268;28;20044;-72
2021/12/28 02:30:13;;;;;;;40.28;11.38;;;;;;;5.93;100.00;99329.03;5005486;28;20019;-72
2021/12/28 02:32:39;;;;;;;45.05;11.15;;;;;;;5.98;100.00;99331.03;5005766;28;20060;-72
2021/12/28 02:35:07;;;;;;;40.72;10.70;;;;;;;6.07;100.00;99329.59;5005252;28;20028;-72
2021/12/28 02:37:33;;;;;;;40.50;11.48;;;;;;;6.13;100.00;99327.81;5005597;28;20144;-72
2021/12/28 02:39:58;;;;;;;44.35;11.60;;;;;;;6.16;100.00;99317.28;5006065;28;20026;-72
2021/12/28 02:42:24;;;;;;;40.25;10.40;;;;;;;6.23;100.00;99323.44;5003915;28;20472;-73
2021/12/28 02:45:09;;;;;;;41.35;10.80;;;;;;;6.28;100.00;99319.97;5020426;28;20022;-72
2021/12/28 02:47:36;;;;;;;33.83;9.63;;;;;;;6.31;100.00;99313.22;5024820;28;20108;-73
2021/12/28 02:50:06;;;;;;;33.85;10.23;;;;;;;6.33;100.00;99309.16;5025093;28;20029;-67
2021/12/28 02:52:36;;;;;;;42.78;10.98;;;;;;;6.34;100.00;99310.84;5025297;28;20024;-70
2021/12/28 02:55:06;;;;;;;29.15;9.75;;;;;;;6.38;100.00;99306.53;5025029;28;20021;-72
2021/12/28 02:57:33;;;;;;;35.80;9.93;;;;;;;6.37;100.00;99298.63;5024147;28;20468;-72
2021/12/28 02:59:58;;;;;;;39.55;10.00;;;;;;;6.39;100.00;99291.88;5025959;28;20033;-72
2021/12/28 03:02:23;;;;;;;36.50;10.50;;;;;;;6.37;100.00;99285.81;5048583;22;20053;-73
2021/12/28 03:04:48;;;;;;;32.15;11.32;;;;;;;6.37;100.00;99290.44;5045752;28;20029;-73
2021/12/28 03:07:14;;;;;;;31.73;9.15;;;;;;;6.42;100.00;99279.63;5045349;28;20534;-72
2021/12/28 03:09:39;;;;;;;35.50;9.30;;;;;;;6.49;100.00;99291.25;5045254;28;20057;-73
2021/12/28 03:12:06;;;;;;;37.38;8.85;;;;;;;6.59;100.00;99290.59;5044195;28;20082;-73
2021/12/28 03:14:31;;;;;;;28.10;8.68;;;;;;;6.64;100.00;99291.53;5045498;28;20044;-68
2021/12/28 03:16:56;;;;;;;36.45;9.13;;;;;;;6.67;100.00;99282.84;5045104;28;20394;-73
2021/12/28 03:19:22;;;;;;;39.50;8.30;;;;;;;6.71;100.00;99275.84;5045087;28;20037;-73
2021/12/28 03:21:47;;;;;;;38.83;9.07;;;;;;;6.70;100.00;99279.66;5045004;28;20017;-73
2021/12/28 03:24:13;;;;;;;37.33;9.32;;;;;;;6.72;100.00;99282.94;5044617;28;20033;-73
2021/12/28 03:26:39;;;;;;;33.40;8.80;;;;;;;6.75;100.00;99271.56;5043947;28;20032;-72
2021/12/28 03:29:05;;;;;;;35.35;9.15;;;;;;;6.73;100.00;99265.50;5044596;28;20025;-73
2021/12/28 03:31:31;;;;;;;41.92;9.98;;;;;;;6.71;100.00;99269.56;5044793;28;20103;-73
2021/12/28 03:33:56;;;;;;;33.20;8.00;;;;;;;6.68;100.00;99253.66;5045419;28;20112;-72
2021/12/28 03:36:24;;;;;;;39.22;9.43;;;;;;;6.64;100.00;99255.22;5044849;28;20694;-72
2021/12/28 03:38:50;;;;;;;35.60;8.48;;;;;;;6.64;100.00;99257.94;5045076;28;20017;-72
2021/12/28 03:41:18;;;;;;;33.50;8.32;;;;;;;6.59;100.00;99260.59;5043074;28;20025;-73
2021/12/28 03:43:46;;;;;;;27.92;7.95;;;;;;;6.56;100.00;99251.00;5044625;28;20104;-72
2021/12/28 03:46:12;;;;;;;;;;;;;;;6.62;100.00;99246.47;5043956;28;20025;-73
2021/12/28 03:48:39;;;;;;;38.30;9.13;;;;;;;6.60;100.00;99246.72;5043558;28;19965;-73
2021/12/28 03:51:06;;;;;;;33.05;7.28;;;;;;;6.63;100.00;99238.03;5044424;28;20025;-73
2021/12/28 03:53:32;;;;;;;34.78;7.63;;;;;;;6.66;100.00;99239.47;5044780;28;20021;-72
2021/12/28 03:55:57;;;;;;;31.25;7.18;;;;;;;6.70;100.00;99240.63;5043630;28;20535;-72
2021/12/28 03:58:22;;;;;;;34.70;7.90;;;;;;;6.75;100.00;99235.28;5044259;28;20036;-73
2021/12/28 04:00:48;;;;;;;32.05;7.72;;;;;;;6.82;100.00;99241.38;5044417;28;20431;-72
2021/12/28 04:03:15;;;;;;;36.40;7.95;;;;;;;6.88;100.00;99232.22;5044055;28;20029;-72
2021/12/28 04:05:43;;;;;;;34.75;7.63;;;;;;;6.96;100.00;99233.72;5044419;28;20047;-72
2021/12/28 04:08:09;;;;;;;33.03;7.07;;;;;;;6.99;100.00;99227.75;5044331;28;20286;-73
2021/12/28 04:10:49;;;;;;;37.60;8.48;;;;;;;7.02;100.00;99239.00;5042940;28;20700;-73
2021/12/28 04:13:15;;;;;;;33.58;7.05;;;;;;;7.04;100.00;99233.28;5044163;28;20021;-73
2021/12/28 04:15:40;;;;;;;32.88;6.72;;;;;;;7.08;100.00;99237.19;5043958;28;20026;-73
2021/12/28 04:18:05;;;;;;;38.53;7.13;;;;;;;7.10;100.00;99237.78;5044119;28;20032;-73
2021/12/28 04:20:30;;;;;;;34.03;7.70;;;;;;;7.14;100.00;99235.38;5044378;28;20025;-72
2021/12/28 04:22:56;;;;;;;37.60;6.60;;;;;;;7.17;100.00;99227.53;5043875;28;20036;-73
2021/12/28 04:25:21;;;;;;;32.28;6.20;;;;;;;7.21;100.00;99228.69;5042360;28;20040;-73
2021/12/28 04:27:46;;;;;;;32.45;6.38;;;;;;;7.26;100.00;99228.78;5043995;28;20068;-72
2021/12/28 04:30:13;;;;;;;31.13;6.45;;;;;;;7.30;100.00;99229.09;5043310;28;20039;-72
2021/12/28 04:32:39;;;;;;;32.35;6.60;;;;;;;7.31;100.00;99225.28;5055281;28;20430;-73
2021/12/28 04:35:05;;;;;;;33.08;6.18;;;;;;;7.36;100.00;99228.09;5063765;28;20024;-72
2021/12/28 04:37:31;;;;;;;26.98;5.88;;;;;;;7.38;100.00;99220.47;5063953;28;20024;-72
2021/12/28 04:39:56;;;;;;;28.88;5.50;;;;;;;7.40;100.00;99229.25;5064122;28;20032;-72
2021/12/28 04:42:24;;;;;;;28.05;6.38;;;;;;;7.45;100.00;99234.81;5062499;28;20173;-71
2021/12/28 04:44:50;;;;;;;23.98;5.28;;;;;;;7.46;100.00;99236.47;5063672;28;20478;-72
2021/12/28 04:47:16;;;;;;;25.90;5.20;;;;;;;7.49;100.00;99237.84;5063356;28;20695;-72
2021/12/28 04:49:42;;;;;;;27.98;5.78;;;;;;;7.53;100.00;99236.28;5063761;28;20094;-72
2021/12/28 04:52:07;;;;;;;21.73;5.10;;;;;;;7.56;100.00;99235.78;5063481;28;20043;-72
2021/12/28 04:54:32;;;;;;;26.27;5.50;;;;;;;7.57;100.00;99237.44;5063525;28;20020;-72
2021/12/28 04:56:57;;;;;;;27.35;5.57;;;;;;;7.58;100.00;99239.09;5061728;28;20031;-72
2021/12/28 04:59:23;;;;;;;28.20;5.70;;;;;;;7.64;100.00;99237.25;5063679;28;20048;-72
2021/12/28 05:01:48;;;;;;;25.33;5.78;;;;;;;7.62;100.00;99237.50;5063280;28;20556;-72
2021/12/28 05:04:14;;;;;;;25.95;4.57;;;;;;;7.62;100.00;99237.50;5063439;28;20352;-72
2021/12/28 05:06:39;;;;;;;22.77;4.50;;;;;;;7.64;100.00;99232.59;5063609;28;20086;-72
2021/12/28 05:09:10;;;;;;;20.55;4.60;;;;;;;7.66;100.00;99227.75;5063241;28;20073;-72
2021/12/28 05:11:37;;;;;;;27.65;5.22;;;;;;;7.67;100.00;99226.66;5062322;28;20117;-72
2021/12/28 05:14:04;;;;;;;25.75;4.80;;;;;;;7.67;100.00;99223.91;5046882;28;20044;-72
2021/12/28 05:16:33;;;;;;;18.75;4.70;;;;;;;7.68;100.00;99213.81;5023885;28;20037;-73
2021/12/28 05:18:58;;;;;;;;;;;;;;;7.71;100.00;99218.78;5024563;28;20038;-72
2021/12/28 05:21:23;;;;;;;21.67;4.80;;;;;;;7.73;100.00;99211.16;5023154;28;20051;-72
2021/12/28 05:23:49;;;;;;;23.95;4.40;;;;;;;7.69;100.00;99212.72;5023257;28;20029;-72
2021/12/28 05:26:14;;;;;;;24.40;4.70;;;;;;;7.69;100.00;99212.72;5022156;28;20036;-72
2021/12/28 05:28:39;;;;;;;19.42;4.55;;;;;;;7.66;100.00;99211.34;5023672;28;20365;-72
2021/12/28 05:31:05;;;;;;;22.63;4.38;;;;;;;7.66;100.00;99200.41;5022972;28;20041;-72
2021/12/28 05:33:30;;;;;;;22.75;4.97;;;;;;;7.69;100.00;99201.78;5024097;28;20021;-72
2021/12/28 05:35:55;;;;;;;21.52;4.72;;;;;;;7.69;100.00;99199.88;5023581;28;20358;-72
2021/12/28 05:38:21;;;;;;;24.77;4.18;;;;;;;7.72;100.00;99190.38;5023054;28;20049;-72
2021/12/28 05:40:46;;;;;;;21.75;4.85;;;;;;;7.76;100.00;99197.81;5021959;28;20044;-72
2021/12/28 05:43:11;;;;;;;19.00;4.05;;;;;;;7.75;100.00;99193.41;5023185;28;20018;-71
2021/12/28 05:45:37;;;;;;;20.77;4.50;;;;;;;7.73;100.00;99195.56;5023334;28;20032;-72
2021/12/28 05:48:03;;;;;;;24.38;4.60;;;;;;;7.75;100.00;99193.41;5023284;28;20867;-69
2021/12/28 05:50:28;;;;;;;22.15;4.10;;;;;;;7.75;100.00;99184.38;5023620;28;20025;-72
2021/12/28 05:52:53;;;;;;;21.27;4.38;;;;;;;7.76;100.00;99184.16;5023404;28;20074;-72
2021/12/28 05:55:18;;;;;;;17.40;4.13;;;;;;;7.78;100.00;99184.72;5020006;28;20155;-71
2021/12/28 05:57:44;;;;;;;16.60;4.28;;;;;;;7.77;100.00;99180.34;5023200;28;20049;-71
2021/12/28 06:00:11;;;;;;;21.25;4.30;;;;;;;7.84;100.00;99179.31;5022999;28;20042;-71
2021/12/28 06:02:37;;;;;;;24.70;5.30;;;;;;;7.83;100.00;99175.75;5033807;28;20041;-72
2021/12/28 06:05:03;;;;;;;18.38;4.00;;;;;;;7.81;100.00;99183.41;5042678;28;20060;-71
2021/12/28 06:07:29;;;;;;;25.00;4.53;;;;;;;7.85;100.00;99178.22;5043760;28;20028;-72
2021/12/28 06:09:55;;;;;;;19.23;3.88;;;;;;;7.84;100.00;99176.59;5046244;28;20021;-72
2021/12/28 06:12:21;;;;;;;24.80;4.47;;;;;;;7.84;100.00;99171.13;5045125;28;20036;-72
2021/12/28 06:14:46;;;;;;;21.98;4.10;;;;;;;7.86;100.00;99171.72;5046446;28;20029;-72
2021/12/28 06:17:11;;;;;;;20.38;4.13;;;;;;;7.89;100.00;99173.91;5046074;28;20037;-72
2021/12/28 06:19:36;;;;;;;19.38;4.00;;;;;;;7.88;100.00;99175.00;5046569;28;20115;-72
2021/12/28 06:22:03;;;;;;;15.95;3.28;;;;;;;7.94;100.00;99168.50;5046341;28;20028;-72
2021/12/28 06:24:28;;;;;;;16.13;3.67;;;;;;;7.92;100.00;99162.47;5046264;28;20493;-72
2021/12/28 06:26:53;;;;;;;17.75;3.95;;;;;;;7.96;100.00;99166.38;5045522;28;20021;-72
2021/12/28 06:29:19;;;;;;;17.27;4.68;;;;;;;8.01;100.00;99163.69;5045844;28;20029;-72
2021/12/28 06:31:44;;;;;;;19.65;4.18;;;;;;;8.03;100.00;99158.78;5045813;28;20110;-72
2021/12/28 06:34:09;;;;;;;18.33;3.75;;;;;;;8.04;100.00;99155.78;5045980;28;20027;-72
2021/12/28 06:36:35;;;;;;;16.13;3.35;;;;;;;8.03;100.00;99142.38;5045983;28;20105;-72
2021/12/28 06:39:00;;;;;;;19.95;4.00;;;;;;;8.01;100.00;99152.75;5046364;28;20025;-72
2021/12/28 06:41:26;;;;;;;14.60;3.22;;;;;;;8.02;100.00;99148.94;5044216;28;20098;-72
2021/12/28 06:43:51;;;;;;;17.92;3.35;;;;;;;8.00;100.00;99140.97;5044801;28;20518;-72
2021/12/28 06:46:16;;;;;;;15.68;3.70;;;;;;;7.92;100.00;99138.69;5045615;28;20025;-71
2021/12/28 06:48:42;;;;;;;15.52;3.53;;;;;;;7.95;100.00;99132.72;5045552;28;20071;-72
2021/12/28 06:51:07;;;;;;;15.43;3.00;;;;;;;7.88;100.00;99142.19;5045325;28;20387;-72
2021/12/28 06:53:33;;;;;;;13.63;3.40;;;;;;;7.87;100.00;99143.28;5045412;28;20021;-72
2021/12/28 06:55:59;;;;;;;14.00;3.95;;;;;;;7.87;100.00;99146.03;5044523;28;20037;-72
2021/12/28 06:58:24;;;;;;;13.90;3.20;;;;;;;7.85;100.00;99151.72;5045516;28;20498;-72
2021/12/28 07:00:50;;;;;;;15.85;3.55;;;;;;;7.85;100.00;99148.16;5045311;28;20053;-72
2021/12/28 07:03:15;;;;;;;15.77;3.58;;;;;;;7.88;100.00;99140.28;5044874;28;20036;-72
2021/12/28 07:05:40;;;;;;;16.58;3.50;;;;;;;7.88;100.00;99136.72;5045653;28;20083;-72
2021/12/28 07:08:05;;;;;;;11.02;3.20;;;;;;;7.89;100.00;99132.91;5045054;28;20438;-72
2021/12/28 07:10:31;;;;;;;17.30;2.80;;;;;;;7.92;100.00;99122.31;5044295;28;20033;-72
2021/12/28 07:12:56;;;;;;;10.65;2.90;;;;;;;7.92;100.00;99140.63;5045614;28;20382;-72
2021/12/28 07:15:22;;;;;;;16.38;3.03;;;;;;;7.93;100.00;99137.63;5044973;28;20025;-72
2021/12/28 07:17:49;;;;;;;13.73;3.22;;;;;;;7.95;100.00;99131.88;5045481;28;20111;-72
2021/12/28 07:20:15;;;;;;;14.32;3.28;;;;;;;8.03;100.00;99129.53;5043959;28;20029;-72
2021/12/28 07:22:40;;;;;;;14.27;3.20;;;;;;;7.97;100.00;99127.84;5044934;28;20051;-72
2021/12/28 07:25:07;;;;;;;13.73;3.30;;;;;;;8.01;100.00;99139.09;5044124;28;20056;-72
2021/12/28 07:27:33;;;;;;;15.18;3.10;;;;;;;8.01;100.00;99136.34;5044256;28;20024;-72
2021/12/28 07:29:58;;;;;;;10.65;3.30;;;;;;;8.06;100.00;99128.22;5045693;28;20017;-72
2021/12/28 07:32:24;;;;;;;12.25;3.10;;;;;;;8.04;100.00;99131.19;5064275;28;20481;-72
2021/12/28 07:34:49;;;;;;;10.00;2.83;;;;;;;8.07;100.00;99129.84;5064050;28;20370;-72
2021/12/28 07:37:15;;;;;;;11.32;2.90;;;;;;;8.14;100.00;99130.47;5063705;28;20324;-73
2021/12/28 07:39:40;;;;;;;13.95;2.95;;;;;;;8.12;100.00;99120.88;5064196;28;20483;-72
2021/12/28 07:42:06;;;;;;;12.05;2.92;;;;;;;8.09;100.00;99116.75;5062359;28;20029;-72
2021/12/28 07:44:31;;;;;;;13.23;2.80;;;;;;;8.09;100.00;99127.69;5047343;28;20033;-70
2021/12/28 07:46:56;;;;;;;15.75;3.42;;;;;;;8.09;100.00;99121.38;5024456;28;20029;-72
2021/12/28 07:49:22;;;;;;;11.30;2.50;;;;;;;8.10;100.00;99129.31;5023522;28;20470;-72
2021/12/28 07:51:47;;;;;;;11.45;3.15;;;;;;;8.10;100.00;99126.59;5023965;28;20026;-72
2021/12/28 07:54:13;;;;;;;13.05;2.92;;;;;;;8.10;100.00;99123.84;5023941;28;20099;-72
2021/12/28 07:56:38;;;;;;;9.60;2.60;;;;;;;8.12;100.00;99124.44;5022626;28;20466;-72
2021/12/28 07:59:04;;;;;;;8.40;2.78;;;;;;;8.11;100.00;99122.81;5023760;28;20022;-72
2021/12/28 08:01:32;;;;;;;10.18;2.83;;;;;;;8.10;100.00;99129.31;5024231;28;20107;-72
2021/12/28 08:03:57;;;;;;;10.10;2.83;;;;;;;8.13;100.00;99123.34;5023990;28;20125;-72
2021/12/28 08:06:22;;;;;;;9.48;2.83;;;;;;;8.12;100.00;99126.34;5023597;28;20105;-72
2021/12/28 08:08:47;;;;;;;14.75;3.00;;;;;;;8.15;100.00;99110.25;5024028;28;20026;-72
2021/12/28 08:11:13;;;;;;;8.23;2.78;;;;;;;8.14;100.00;99115.97;5022511;28;20407;-72
2021/12/28 08:13:38;;;;;;;10.18;3.13;;;;;;;8.21;100.00;99111.13;5023578;28;20034;-72
2021/12/28 08:16:03;;;;;;;11.27;3.10;;;;;;;8.19;100.00;99111.38;5023372;28;20360;-71
2021/12/28 08:18:28;;;;;;;7.32;3.00;;;;;;;8.23;100.00;99120.72;5024117;28;20435;-72
2021/12/28 08:20:54;;;;;;;11.63;3.35;;;;;;;8.22;100.00;99116.34;5023247;28;20044;-72
2021/12/28 08:23:19;;;;;;;9.05;3.58;;;;;;;8.30;100.00;99117.78;5023449;28;20052;-72
2021/12/28 08:25:44;;;;;;;10.02;3.78;;;;;;;8.35;100.00;99114.28;5022515;28;20029;-72
2021/12/28 08:28:10;;;;;;;15.77;4.38;;;;;;;8.32;100.00;99112.91;5022897;28;20068;-72
2021/12/28 08:30:38;;;;;;;14.90;4.72;;;;;;;8.31;100.00;99108.47;5023323;28;20026;-72
2021/12/28 08:33:04;;;;;;;;;;;;;;;8.38;100.00;99109.16;5032036;28;20479;-72
2021/12/28 08:35:30;;;;;;;11.43;4.78;;;;;;;8.39;100.00;99107.22;5042947;28;19921;-72
2021/12/28 08:37:55;;;;;;;12.93;4.60;;;;;;;8.37;100.00;99096.56;5043442;28;20029;-73
2021/12/28 08:40:21;;;;;;;10.20;4.65;;;;;;;8.37;100.00;99095.75;5041985;28;20339;-73
2021/12/28 08:42:46;;;;;;;14.45;4.93;;;;;;;8.39;100.00;99093.56;5043068;28;20045;-72
2021/12/28 08:45:12;;;;;;;12.95;5.07;;;;;;;8.45;100.00;99101.53;5042593;28;20021;-72
2021/12/28 08:47:38;;;;;;;10.73;5.72;;;;;;;8.46;100.00;99089.50;5041642;28;20049;-72
2021/12/28 08:50:06;;;;;;;11.93;5.20;;;;;;;8.46;100.00;99099.63;5042683;28;20021;-72
2021/12/28 08:52:31;;;;;;;12.05;5.07;;;;;;;8.49;100.00;99094.47;5043372;28;20036;-72
2021/12/28 08:54:57;;;;;;;10.40;5.07;;;;;;;8.52;100.00;99093.16;5042559;28;20021;-73
2021/12/28 08:57:22;;;;;;;12.70;5.75;;;;;;;8.57;100.00;99096.75;5041940;28;20028;-72
2021/12/28 08:59:48;;;;;;;13.88;5.38;;;;;;;8.56;100.00;99094.25;5042669;28;20040;-72
2021/12/28 09:02:13;;;;;;;14.32;6.65;;;;;;;8.57;100.00;99101.41;5042615;28;20072;-72
2021/12/28 09:04:43;;;;;;;10.65;5.53;;;;;;;8.60;100.00;99098.13;5042775;28;20078;-72
2021/12/28 09:07:12;;;;;;;11.90;5.53;;;;;;;8.58;100.00;99081.97;5042514;28;20036;-72
2021/12/28 09:09:38;;;;;;;12.10;6.10;;;;;;;8.66;100.00;99071.63;5049319;28;20083;-72
2021/12/28 09:12:04;;;;;;;11.77;6.63;;;;;;;8.61;100.00;99075.13;5061915;28;20028;-72
2021/12/28 09:14:30;;;;;;;14.80;7.53;;;;;;;8.61;100.00;99079.78;5062789;28;20060;-73
2021/12/28 09:16:56;;;;;;;13.48;6.85;;;;;;;8.61;100.00;99075.13;5063004;28;20048;-72
2021/12/28 09:19:21;;;;;;;11.20;6.95;;;;;;;8.67;100.00;99073.25;5062510;28;20075;-71
2021/12/28 09:21:47;;;;;;;11.88;6.72;;;;;;;8.66;100.00;99079.81;5061229;28;20058;-72
2021/12/28 09:24:12;;;;;;;11.70;7.32;;;;;;;8.72;100.00;99082.38;5037815;28;20136;-72
2021/12/28 09:26:37;;;;;;;12.32;7.35;;;;;;;8.72;100.00;99076.06;5031444;28;20048;-72
2021/12/28 09:29:03;;;;;;;17.02;7.30;;;;;;;8.76;100.00;99077.16;5042282;28;20079;-71
2021/12/28 09:31:28;;;;;;;14.38;8.73;;;;;;;8.79;100.00;99066.53;5042637;28;20100;-72
2021/12/28 09:33:53;;;;;;;14.18;9.63;;;;;;;8.86;100.00;99060.00;5042347;28;20471;-72
2021/12/28 09:36:19;;;;;;;12.98;8.18;;;;;;;8.89;100.00;99063.03;5041997;28;20021;-72
2021/12/28 09:38:45;;;;;;;13.27;8.55;;;;;;;8.93;100.00;99061.44;5042578;28;20025;-72
2021/12/28 09:41:11;;;;;;;13.75;8.98;;;;;;;8.93;100.00;99055.13;5040538;28;20025;-72
2021/12/28 09:43:36;;;;;;;15.38;8.50;;;;;;;8.97;100.00;99056.22;5044442;28;20082;-72
2021/12/28 09:46:02;;;;;;;12.95;8.82;;;;;;;8.99;100.00;99048.59;5046077;28;20028;-71
2021/12/28 09:48:27;;;;;;;15.13;8.50;;;;;;;8.97;100.00;99054.34;5046035;28;20044;-72
2021/12/28 09:50:53;;;;;;;12.38;8.85;;;;;;;9.00;100.00;99052.97;5045968;28;20021;-71
2021/12/28 09:53:18;;;;;;;14.70;9.82;;;;;;;8.96;100.00;99051.84;5046163;28;20113;-72
2021/12/28 09:55:43;;;;;;;13.80;8.40;;;;;;;8.99;100.00;99043.13;5044894;28;20529;-72
2021/12/28 09:58:09;;;;;;;13.02;9.68;;;;;;;8.98;100.00;99045.03;5045460;28;20158;-72
2021/12/28 10:00:36;;;;;;;12.35;8.65;;;;;;;9.02;100.00;99042.56;5045549;28;20025;-71
2021/12/28 10:03:02;;;;;;;13.32;9.35;;;;;;;9.08;100.00;99041.53;5046014;28;20025;-66
2021/12/28 10:05:29;;;;;;;13.45;9.98;;;;;;;9.04;100.00;99040.41;5045891;28;20027;-72
2021/12/28 10:07:57;;;;;;;12.88;8.88;;;;;;;9.13;100.00;99027.88;5045824;28;20086;-72
2021/12/28 10:10:28;;;;;;;12.93;8.43;;;;;;;9.23;100.00;99030.66;5043692;28;20104;-72
2021/12/28 10:12:56;;;;;;;11.48;8.60;;;;;;;9.26;100.00;99021.06;5045265;28;20021;-72
2021/12/28 10:15:25;;;;;;;11.70;8.43;;;;;;;9.31;100.00;99021.91;5044768;28;20025;-72
2021/12/28 10:17:53;;;;;;;10.73;7.85;;;;;;;9.42;100.00;99003.59;5045570;28;20024;-72
2021/12/28 10:20:23;;;;;;;10.60;7.55;;;;;;;9.42;100.00;99008.25;5044672;28;20047;-72
2021/12/28 10:22:53;;;;;;;10.85;7.32;;;;;;;9.41;100.00;99012.09;5045451;28;20033;-73
2021/12/28 10:25:27;;;;;;;10.45;7.30;;;;;;;9.44;100.00;99006.09;5043409;28;20472;-72
2021/12/28 10:28:42;;;;;;;10.38;7.38;;;;;;;9.45;100.00;98994.03;5045460;28;20147;-73
2021/12/28 10:31:16;;;;;;;9.32;6.72;;;;;;;9.46;100.00;98996.50;5027549;28;20090;-72
2021/12/28 10:33:42;;;;;;;9.07;6.72;;;;;;;9.47;100.00;98978.97;5045392;28;20119;-72
2021/12/28 10:36:10;;;;;;;10.75;7.00;;;;;;;9.49;100.00;98970.50;5052620;28;20155;-72
2021/12/28 10:38:44;;;;;;;10.10;6.15;;;;;;;9.53;100.00;98971.56;5065139;28;20036;-72
2021/12/28 10:41:15;;;;;;;11.30;6.93;;;;;;;9.56;100.00;98965.56;5063075;28;20107;-72
2021/12/28 10:43:45;;;;;;;8.95;6.65;;;;;;;9.64;100.00;98965.03;5064947;28;20029;-72
2021/12/28 10:46:16;;;;;;;9.43;5.90;;;;;;;9.66;100.00;98964.75;5064838;28;20125;-72
2021/12/28 10:48:47;;;;;;;7.90;5.63;;;;;;;9.67;100.00;98964.50;5064596;28;20312;-72
2021/12/28 10:51:23;;;;;;;9.05;5.90;;;;;;;9.68;100.00;98962.56;5064158;28;20033;-72
2021/12/28 10:56:27;;;;;;;7.93;5.22;;;;;;;9.64;100.00;98958.75;5062987;28;20028;-72
2021/12/28 10:58:53;;;;;;;8.55;4.32;;;;;;;9.66;100.00;98957.38;5064877;28;20506;-72
2021/12/28 11:01:24;;;;;;;7.35;4.00;;;;;;;9.67;100.00;98956.25;5063891;28;20079;-72
2021/12/28 11:03:55;;;;;;;8.73;4.60;;;;;;;9.65;100.00;98950.25;5040528;28;20045;-72
2021/12/28 11:06:27;;;;;;;7.85;3.80;;;;;;;9.61;100.00;98954.63;5023966;28;20403;-72
2021/12/28 11:09:03;;;;;;;7.45;3.92;;;;;;;9.59;100.00;98941.19;5025013;28;20049;-72
2021/12/28 11:11:29;;;;;;;8.43;4.20;;;;;;;9.59;100.00;98943.09;5023609;28;20033;-72
2021/12/28 11:14:01;;;;;;;9.02;4.00;;;;;;;9.53;100.00;98944.16;5024173;28;20211;-72
2021/12/28 11:16:29;;;;;;;7.90;4.28;;;;;;;9.50;100.00;98933.75;5024296;28;20116;-70
2021/12/28 11:18:57;;;;;;;6.05;3.88;;;;;;;9.51;100.00;98921.69;5024136;28;20021;-72
2021/12/28 11:21:24;;;;;;;;;;;;;;;9.51;100.00;98921.69;5024170;28;20095;-72
2021/12/28 11:23:52;;;;;;;8.38;4.70;;;;;;;9.44;100.00;98918.41;5024535;28;19917;-71